createdAt,value
2017-12-06T00:00:20.285Z,19.35
2017-12-06T00:02:47.492Z,17.33
2017-12-06T00:05:14.640Z,17.75
2017-12-06T00:07:41.917Z,18.75
2017-12-06T00:10:08.366Z,18.27
2017-12-06T00:12:40.909Z,17.37
2017-12-06T00:15:13.450Z,15.80
2017-12-06T00:17:39.949Z,17.25
2017-12-06T00:20:06.373Z,16.48
2017-12-06T00:22:32.869Z,15.45
2017-12-06T00:24:59.307Z,15.90
2017-12-06T00:27:26.460Z,15.48
2017-12-06T00:29:52.862Z,17.73
2017-12-06T00:32:19.273Z,17.25
2017-12-06T00:34:45.689Z,15.85
2017-12-06T00:37:12.120Z,13.90
2017-12-06T00:39:38.545Z,15.15
2017-12-06T00:42:04.957Z,14.07
2017-12-06T00:44:32.252Z,14.15
2017-12-06T00:46:58.631Z,14.63
2017-12-06T00:49:25.773Z,14.13
2017-12-06T00:51:52.217Z,15.70
2017-12-06T00:54:19.362Z,15.82
2017-12-06T00:56:46.529Z,14.90
2017-12-06T00:59:12.957Z,15.35
2017-12-06T01:01:39.381Z,14.57
2017-12-06T01:04:06.536Z,16.80
2017-12-06T01:06:33.655Z,17.08
2017-12-06T01:09:00.093Z,17.40
2017-12-06T01:11:26.497Z,16.02
2017-12-06T01:13:52.911Z,15.32
2017-12-06T01:16:19.361Z,16.27
2017-12-06T01:18:45.760Z,17.55
2017-12-06T01:21:12.169Z,16.73
2017-12-06T01:23:38.581Z,18.42
2017-12-06T01:26:05.799Z,19.15
2017-12-06T01:28:32.193Z,17.35
2017-12-06T01:30:59.342Z,18.25
2017-12-06T01:33:26.485Z,17.60
2017-12-06T01:35:53.624Z,17.42
2017-12-06T01:38:20.111Z,17.65
2017-12-06T01:40:46.540Z,17.45
2017-12-06T01:43:12.974Z,18.58
2017-12-06T01:45:39.389Z,17.00
2017-12-06T01:48:05.963Z,17.50
2017-12-06T01:50:32.416Z,17.90
2017-12-06T01:52:58.812Z,17.60
2017-12-06T01:55:25.256Z,16.85
2017-12-06T01:57:51.704Z,15.80
2017-12-06T02:00:18.878Z,16.60
2017-12-06T02:02:45.297Z,17.77
2017-12-06T02:05:12.525Z,17.37
2017-12-06T02:07:38.972Z,18.65
2017-12-06T02:10:05.402Z,16.10
2017-12-06T02:12:31.845Z,15.50
2017-12-06T02:14:58.297Z,14.93
2017-12-06T02:17:25.483Z,16.08
2017-12-06T02:19:51.970Z,15.20
2017-12-06T02:22:19.158Z,14.63
2017-12-06T02:24:45.626Z,13.75
2017-12-06T02:27:12.045Z,13.95
2017-12-06T02:29:38.524Z,14.65
2017-12-06T02:32:05.713Z,15.93
2017-12-06T02:34:32.195Z,14.18
2017-12-06T02:36:59.365Z,14.38
2017-12-06T02:39:38.106Z,15.57
2017-12-06T02:55:26.168Z,15.70
2017-12-06T02:57:52.619Z,15.60
2017-12-06T03:00:19.062Z,16.87
2017-12-06T03:02:45.505Z,17.15
2017-12-06T03:05:12.661Z,17.42
2017-12-06T03:07:39.132Z,19.48
2017-12-06T03:10:07.106Z,18.12
2017-12-06T03:12:33.541Z,18.33
2017-12-06T03:14:59.989Z,20.42
2017-12-06T03:17:26.410Z,19.73
2017-12-06T03:19:52.809Z,18.85
2017-12-06T03:22:20.025Z,19.02
2017-12-06T03:24:46.415Z,20.90
2017-12-06T03:27:12.829Z,20.00
2017-12-06T03:29:39.269Z,21.20
2017-12-06T03:32:05.686Z,17.65
2017-12-06T03:34:32.844Z,18.10
2017-12-06T03:36:59.968Z,19.02
2017-12-06T03:39:27.139Z,19.37
2017-12-06T03:41:54.281Z,19.70
2017-12-06T03:44:20.682Z,18.60
2017-12-06T03:46:47.085Z,20.27
2017-12-06T03:49:13.469Z,18.55
2017-12-06T03:51:39.885Z,20.20
2017-12-06T03:54:06.285Z,18.15
2017-12-06T03:56:32.698Z,18.55
2017-12-06T03:58:59.146Z,22.17
2017-12-06T04:01:25.552Z,20.92
2017-12-06T04:03:51.972Z,20.23
2017-12-06T04:06:19.144Z,19.27
2017-12-06T04:08:45.534Z,20.73
2017-12-06T04:11:12.017Z,19.80
2017-12-06T04:13:38.461Z,22.55
2017-12-06T04:16:04.889Z,21.33
2017-12-06T04:18:31.285Z,18.95
2017-12-06T04:20:57.737Z,19.83
2017-12-06T04:23:24.147Z,18.75
2017-12-06T04:25:50.537Z,19.23
2017-12-06T04:28:16.966Z,17.65
2017-12-06T04:30:43.389Z,17.48
2017-12-06T04:33:09.785Z,18.20
2017-12-06T04:35:36.941Z,19.15
2017-12-06T04:38:03.372Z,20.02
2017-12-06T04:40:29.859Z,20.48
2017-12-06T04:42:57.084Z,21.15
2017-12-06T04:45:23.521Z,21.58
2017-12-06T04:47:49.924Z,19.87
2017-12-06T04:50:16.330Z,17.62
2017-12-06T04:52:42.724Z,18.90
2017-12-06T04:55:09.121Z,20.42
2017-12-06T04:57:35.513Z,17.77
2017-12-06T05:00:01.937Z,17.80
2017-12-06T05:02:28.381Z,18.17
2017-12-06T05:04:54.772Z,16.73
2017-12-06T05:07:21.480Z,17.90
2017-12-06T05:09:48.621Z,18.30
2017-12-06T05:12:15.868Z,19.65
2017-12-06T05:14:43.009Z,17.00
2017-12-06T05:17:10.193Z,17.30
2017-12-06T05:19:37.328Z,18.08
2017-12-06T05:22:04.456Z,17.23
2017-12-06T05:24:31.297Z,16.35
2017-12-06T05:26:58.460Z,15.70
2017-12-06T05:29:24.949Z,17.85
2017-12-06T05:31:51.376Z,16.60
2017-12-06T05:34:17.761Z,16.35
2017-12-06T05:36:44.186Z,16.45
2017-12-06T05:39:11.425Z,16.42
2017-12-06T05:41:37.918Z,16.87
2017-12-06T05:44:04.325Z,21.33
2017-12-06T05:46:30.776Z,17.02
2017-12-06T05:48:57.188Z,16.95
2017-12-06T05:51:24.304Z,16.87
2017-12-06T05:53:50.713Z,15.82
2017-12-06T05:56:17.103Z,17.25
2017-12-06T05:58:43.550Z,16.30
2017-12-06T06:01:09.945Z,16.45
2017-12-06T06:03:36.390Z,17.80
2017-12-06T06:06:02.780Z,15.77
2017-12-06T06:08:29.191Z,18.30
2017-12-06T06:10:55.638Z,15.90
2017-12-06T06:13:22.087Z,16.17
2017-12-06T06:15:48.510Z,17.70
2017-12-06T06:18:14.940Z,16.73
2017-12-06T06:20:41.329Z,18.30
2017-12-06T06:23:07.705Z,17.20
2017-12-06T06:25:34.111Z,17.87
2017-12-06T06:28:00.554Z,15.00
2017-12-06T06:30:27.044Z,18.35
2017-12-06T06:32:53.457Z,16.35
2017-12-06T06:35:19.870Z,18.37
2017-12-06T06:37:46.304Z,18.73
2017-12-06T06:40:12.721Z,17.67
2017-12-06T06:42:39.143Z,19.90
2017-12-06T06:45:05.589Z,17.37
2017-12-06T06:47:32.046Z,18.45
2017-12-06T06:49:58.417Z,20.73
2017-12-06T06:52:25.565Z,21.02
2017-12-06T06:54:52.740Z,18.37
2017-12-06T06:57:19.145Z,15.77
2017-12-06T06:59:45.595Z,16.67
2017-12-06T07:02:12.005Z,18.02
2017-12-06T07:04:38.452Z,16.75
2017-12-06T07:07:04.871Z,16.12
2017-12-06T07:09:32.016Z,18.20
2017-12-06T07:11:58.417Z,15.60
2017-12-06T07:14:24.846Z,15.50
2017-12-06T07:16:51.262Z,15.25
2017-12-06T07:19:17.696Z,15.35
2017-12-06T07:21:44.100Z,15.63
2017-12-06T07:24:10.529Z,14.70
2017-12-06T07:26:37.677Z,15.95
2017-12-06T07:29:04.122Z,14.87
2017-12-06T07:31:30.572Z,14.43
2017-12-06T07:33:57.041Z,15.05
2017-12-06T07:36:23.478Z,17.02
2017-12-06T07:38:49.930Z,15.07
2017-12-06T07:41:17.122Z,17.15
2017-12-06T07:43:43.619Z,15.20
2017-12-06T07:46:10.758Z,12.93
2017-12-06T07:48:37.913Z,13.52
2017-12-06T07:51:05.109Z,14.93
2017-12-06T07:53:31.509Z,14.40
2017-12-06T07:55:58.828Z,14.30
2017-12-06T07:58:31.197Z,13.60
2017-12-06T08:00:57.680Z,13.65
2017-12-06T08:03:24.148Z,11.73
2017-12-06T08:05:50.668Z,14.13
2017-12-06T08:08:17.132Z,12.65
2017-12-06T08:10:43.545Z,12.70
2017-12-06T08:13:09.963Z,13.55
2017-12-06T08:15:36.430Z,14.98
2017-12-06T08:18:02.841Z,14.15
2017-12-06T08:20:29.273Z,13.68
2017-12-06T08:22:55.701Z,13.45
2017-12-06T08:25:22.152Z,13.05
2017-12-06T08:27:48.639Z,13.62
2017-12-06T08:30:15.132Z,13.38
2017-12-06T08:32:41.553Z,14.35
2017-12-06T08:35:08.009Z,13.88
2017-12-06T08:37:35.154Z,14.82
2017-12-06T08:40:01.617Z,19.15
2017-12-06T08:42:28.079Z,16.20
2017-12-06T08:44:54.516Z,13.35
2017-12-06T08:47:20.997Z,15.35
2017-12-06T08:49:47.488Z,15.35
2017-12-06T08:52:13.948Z,12.30
2017-12-06T08:54:40.425Z,14.43
2017-12-06T08:57:06.879Z,13.43
2017-12-06T08:59:33.318Z,13.30
2017-12-06T09:01:59.738Z,13.80
2017-12-06T09:04:26.146Z,15.07
2017-12-06T09:06:52.598Z,14.45
2017-12-06T09:09:19.040Z,13.60
2017-12-06T09:11:45.500Z,13.75
2017-12-06T09:14:11.925Z,13.10
2017-12-06T09:16:38.354Z,12.82
2017-12-06T09:19:04.786Z,13.15
2017-12-06T09:21:31.227Z,12.88
2017-12-06T09:23:57.658Z,12.95
2017-12-06T09:26:24.084Z,11.63
2017-12-06T09:28:50.578Z,11.07
2017-12-06T09:31:17.080Z,11.90
2017-12-06T09:33:43.550Z,12.45
2017-12-06T09:36:10.015Z,13.02
2017-12-06T09:38:36.457Z,12.23
2017-12-06T09:41:02.850Z,11.38
2017-12-06T09:43:29.305Z,12.20
2017-12-06T09:45:55.773Z,10.75
2017-12-06T09:48:22.188Z,10.82
2017-12-06T09:50:48.597Z,11.20
2017-12-06T09:53:14.990Z,10.70
2017-12-06T09:55:41.407Z,11.68
2017-12-06T09:58:08.564Z,11.12
2017-12-06T10:00:34.989Z,11.52
2017-12-06T10:03:01.389Z,10.30
2017-12-06T10:05:27.794Z,10.75
2017-12-06T10:07:54.945Z,9.75
2017-12-06T10:10:21.350Z,12.40
2017-12-06T10:12:47.765Z,11.32
2017-12-06T10:15:14.158Z,12.20
2017-12-06T10:17:40.554Z,13.02
2017-12-06T10:20:07.724Z,10.85
2017-12-06T10:22:34.153Z,11.20
2017-12-06T10:25:01.551Z,10.90
2017-12-06T10:27:27.997Z,11.52
2017-12-06T10:29:54.538Z,8.38
2017-12-06T10:32:20.979Z,8.38
2017-12-06T10:34:47.390Z,8.93
2017-12-06T10:37:13.792Z,9.82
2017-12-06T10:39:40.238Z,7.70
2017-12-06T10:42:06.648Z,6.18
2017-12-06T10:44:33.176Z,6.95
2017-12-06T10:46:59.626Z,6.32
2017-12-06T10:49:26.057Z,6.20
2017-12-06T10:51:52.465Z,6.30
2017-12-06T10:54:19.658Z,5.45
2017-12-06T10:56:46.100Z,5.82
2017-12-06T10:59:12.498Z,6.70
2017-12-06T11:01:38.917Z,5.40
2017-12-06T11:04:05.336Z,6.80
2017-12-06T11:06:32.501Z,6.22
2017-12-06T11:08:58.951Z,6.00
2017-12-06T11:11:25.357Z,6.75
2017-12-06T11:13:52.513Z,6.90
2017-12-06T11:16:19.649Z,7.43
2017-12-06T11:18:46.065Z,6.80
2017-12-06T11:21:12.469Z,6.10
2017-12-06T11:23:38.869Z,5.75
2017-12-06T11:26:05.293Z,5.95
2017-12-06T11:28:32.433Z,6.62
2017-12-06T11:30:59.613Z,6.00
2017-12-06T11:33:26.021Z,6.60
2017-12-06T11:35:53.152Z,6.72
2017-12-06T11:38:19.573Z,9.95
2017-12-06T11:40:45.952Z,9.40
2017-12-06T11:43:12.358Z,5.85
2017-12-06T11:45:39.666Z,6.40
2017-12-06T11:48:06.069Z,6.47
2017-12-06T11:50:32.480Z,6.00
2017-12-06T11:52:59.674Z,6.53
2017-12-06T11:55:26.119Z,6.90
2017-12-06T11:57:52.538Z,8.18
2017-12-06T12:00:19.136Z,7.80
2017-12-06T12:02:45.595Z,7.30
2017-12-06T12:05:12.041Z,7.60
2017-12-06T12:07:38.462Z,7.95
2017-12-06T12:10:04.854Z,6.12
2017-12-06T12:12:31.289Z,6.80
2017-12-06T12:14:57.713Z,6.03
2017-12-06T12:17:24.997Z,6.25
2017-12-06T12:19:51.374Z,5.90
2017-12-06T12:22:17.906Z,5.53
2017-12-06T12:24:44.361Z,6.10
2017-12-06T12:27:10.770Z,6.05
2017-12-06T12:29:37.204Z,8.50
2017-12-06T12:32:03.621Z,7.80
2017-12-06T12:34:30.058Z,6.70
2017-12-06T12:36:56.549Z,7.87
2017-12-06T12:39:23.009Z,8.60
2017-12-06T12:41:49.495Z,11.50
2017-12-06T12:44:17.561Z,6.95
2017-12-06T12:46:44.049Z,7.60
2017-12-06T12:49:10.509Z,7.30
2017-12-06T12:51:37.149Z,7.15
2017-12-06T12:54:03.613Z,6.60
2017-12-06T12:56:30.113Z,7.18
2017-12-06T12:58:56.609Z,6.93
2017-12-06T13:01:23.114Z,6.95
2017-12-06T13:03:50.002Z,7.03
2017-12-06T13:06:16.504Z,7.50
2017-12-06T13:08:42.960Z,7.00
2017-12-06T13:11:09.446Z,8.27
2017-12-06T13:13:36.666Z,7.72
2017-12-06T13:16:03.129Z,7.40
2017-12-06T13:18:30.356Z,8.07
2017-12-06T13:20:56.868Z,8.43
2017-12-06T13:23:23.353Z,8.48
2017-12-06T13:25:50.589Z,7.68
2017-12-06T13:28:17.838Z,7.93
2017-12-06T13:30:44.433Z,8.90
2017-12-06T13:33:10.915Z,8.07
2017-12-06T13:35:37.404Z,7.97
2017-12-06T13:38:03.922Z,10.40
2017-12-06T13:40:30.433Z,9.88
2017-12-06T13:42:57.642Z,8.15
2017-12-06T13:45:24.504Z,8.68
2017-12-06T13:47:51.009Z,7.78
2017-12-06T13:50:17.486Z,8.15
2017-12-06T13:52:44.734Z,7.95
2017-12-06T13:55:11.199Z,7.65
2017-12-06T13:57:37.729Z,7.75
2017-12-06T14:00:04.258Z,8.88
2017-12-06T14:02:30.725Z,8.30
2017-12-06T14:04:57.174Z,8.00
2017-12-06T14:07:23.601Z,8.50
2017-12-06T14:09:50.450Z,8.45
2017-12-06T14:12:16.912Z,7.93
2017-12-06T14:14:44.135Z,7.35
2017-12-06T14:17:10.616Z,8.10
2017-12-06T14:19:37.839Z,7.43
2017-12-06T14:22:04.361Z,7.85
2017-12-06T14:24:30.830Z,7.87
2017-12-06T14:26:57.368Z,7.30
2017-12-06T14:29:24.016Z,9.05
2017-12-06T14:31:50.501Z,8.27
2017-12-06T14:34:17.016Z,9.82
2017-12-06T14:36:43.491Z,11.00
2017-12-06T14:39:10.753Z,8.77
2017-12-06T14:41:38.018Z,13.73
2017-12-06T14:44:04.499Z,11.15
2017-12-06T14:46:30.986Z,11.43
2017-12-06T14:48:58.248Z,10.35
2017-12-06T14:51:24.705Z,10.18
2017-12-06T14:53:51.444Z,11.50
2017-12-06T14:56:17.912Z,12.10
2017-12-06T14:58:44.463Z,14.00
2017-12-06T15:01:10.893Z,14.80
2017-12-06T15:03:37.426Z,12.35
2017-12-06T15:06:03.908Z,11.85
2017-12-06T15:08:30.676Z,13.02
2017-12-06T15:10:57.186Z,11.10
2017-12-06T15:13:23.673Z,11.77
2017-12-06T15:15:50.933Z,10.50
2017-12-06T15:18:18.150Z,10.63
2017-12-06T15:20:44.714Z,10.95
2017-12-06T15:23:11.157Z,11.45
2017-12-06T15:25:38.366Z,11.98
2017-12-06T15:28:05.711Z,12.43
2017-12-06T15:30:32.216Z,11.02
2017-12-06T15:32:58.703Z,10.32
2017-12-06T15:35:25.242Z,12.00
2017-12-06T15:37:51.694Z,13.07
2017-12-06T15:40:18.190Z,18.17
2017-12-06T15:42:44.651Z,20.45
2017-12-06T15:45:11.138Z,12.77
2017-12-06T15:47:37.659Z,13.80
2017-12-06T15:50:04.282Z,15.40
2017-12-06T15:52:31.488Z,11.95
2017-12-06T15:54:57.946Z,14.98
2017-12-06T15:57:25.188Z,12.63
2017-12-06T15:59:51.674Z,10.90
2017-12-06T16:02:18.201Z,14.60
2017-12-06T16:04:44.687Z,14.65
2017-12-06T16:07:11.174Z,14.25
2017-12-06T16:09:37.689Z,14.70
2017-12-06T16:12:04.503Z,14.82
2017-12-06T16:14:31.814Z,17.80
2017-12-06T16:16:58.273Z,16.67
2017-12-06T16:19:24.757Z,19.37
2017-12-06T16:21:51.241Z,17.02
2017-12-06T16:24:17.865Z,17.20
2017-12-06T16:26:44.360Z,20.40
2017-12-06T16:29:11.693Z,17.70
2017-12-06T16:31:38.166Z,16.30
2017-12-06T16:34:04.698Z,17.90
2017-12-06T16:49:56.102Z,31.55
2017-12-06T16:52:22.558Z,20.65
2017-12-06T16:54:49.034Z,21.77
2017-12-06T16:57:16.246Z,21.10
2017-12-06T16:59:42.727Z,26.95
2017-12-06T17:02:09.312Z,25.08
2017-12-06T17:04:36.494Z,20.48
2017-12-06T17:07:02.981Z,22.10
2017-12-06T17:09:29.471Z,20.33
2017-12-06T17:11:56.685Z,22.60
2017-12-06T17:14:23.226Z,22.37
2017-12-06T17:16:49.694Z,19.00
2017-12-06T17:19:16.122Z,19.83
2017-12-06T17:21:44.276Z,21.25
2017-12-06T17:24:11.505Z,18.85
2017-12-06T17:26:38.055Z,21.52
2017-12-06T17:29:16.658Z,19.48
2017-12-06T17:31:45.912Z,17.92
2017-12-06T17:34:13.252Z,18.98
2017-12-06T17:36:40.951Z,18.98
2017-12-06T17:39:07.417Z,18.42
2017-12-06T17:41:33.930Z,22.00
2017-12-06T17:44:00.411Z,24.63
2017-12-06T17:46:26.933Z,22.65
2017-12-06T17:48:53.468Z,19.12
2017-12-06T17:51:19.968Z,18.60
2017-12-06T17:53:46.457Z,19.20
2017-12-06T17:56:12.954Z,23.05
2017-12-06T17:58:40.182Z,18.60
2017-12-06T18:01:06.660Z,18.25
2017-12-06T18:03:33.233Z,19.42
2017-12-06T18:05:59.720Z,20.62
2017-12-06T18:08:26.203Z,19.30
2017-12-06T18:10:53.459Z,17.58
2017-12-06T18:13:19.967Z,21.25
2017-12-06T18:15:47.268Z,17.40
2017-12-06T18:18:13.737Z,19.70
2017-12-06T18:20:40.232Z,19.67
2017-12-06T18:23:06.708Z,18.40
2017-12-06T18:25:34.040Z,16.95
2017-12-06T18:28:00.999Z,18.65
2017-12-06T18:30:27.487Z,22.48
2017-12-06T18:32:54.731Z,23.25
2017-12-06T18:35:21.245Z,21.98
2017-12-06T18:37:47.703Z,20.58
2017-12-06T18:40:14.194Z,22.75
2017-12-06T18:42:40.666Z,23.73
2017-12-06T18:45:07.866Z,27.95
2017-12-06T18:47:35.161Z,25.50
2017-12-06T18:50:01.662Z,29.00
2017-12-06T18:52:28.120Z,31.20
2017-12-06T18:54:54.565Z,22.60
2017-12-06T18:57:21.008Z,19.00
2017-12-06T18:59:48.196Z,18.25
2017-12-06T19:02:14.641Z,18.35
2017-12-06T19:04:41.882Z,17.50
2017-12-06T19:07:08.297Z,20.45
2017-12-06T19:09:34.804Z,20.40
2017-12-06T19:12:01.978Z,22.45
2017-12-06T19:14:29.200Z,21.40
2017-12-06T19:16:56.437Z,20.00
2017-12-06T19:19:22.896Z,21.73
2017-12-06T19:21:50.050Z,22.27
2017-12-06T19:24:16.475Z,19.87
2017-12-06T19:26:42.911Z,24.63
2017-12-06T19:29:10.070Z,22.48
2017-12-06T19:31:37.202Z,22.65
2017-12-06T19:34:03.667Z,26.50
2017-12-06T19:36:30.181Z,22.35
2017-12-06T19:38:57.382Z,21.23
2017-12-06T19:41:23.866Z,22.45
2017-12-06T19:43:51.011Z,19.90
2017-12-06T19:46:17.556Z,19.42
2017-12-06T19:48:44.745Z,19.65
2017-12-06T19:51:11.203Z,19.77
2017-12-06T19:53:37.660Z,19.90
2017-12-06T19:56:04.134Z,20.30
2017-12-06T19:58:30.539Z,19.50
2017-12-06T20:00:57.728Z,18.52
2017-12-06T20:03:24.249Z,18.83
2017-12-06T20:05:50.775Z,18.02
2017-12-06T20:08:17.254Z,17.30
2017-12-06T20:10:44.456Z,19.15
2017-12-06T20:13:10.923Z,18.65
2017-12-06T20:15:37.382Z,19.12
2017-12-06T20:18:03.840Z,19.25
2017-12-06T20:20:30.356Z,17.92
2017-12-06T20:22:57.571Z,19.67
2017-12-06T20:25:24.024Z,18.90
2017-12-06T20:27:50.492Z,18.70
2017-12-06T20:30:17.702Z,19.55
2017-12-06T20:32:44.222Z,18.15
2017-12-06T20:35:10.718Z,17.77
2017-12-06T20:37:37.881Z,18.60
2017-12-06T20:40:04.381Z,17.95
2017-12-06T20:42:31.557Z,18.73
2017-12-06T20:44:57.994Z,19.12
2017-12-06T20:47:24.580Z,19.60
2017-12-06T20:49:51.022Z,17.83
2017-12-06T20:52:17.513Z,18.70
2017-12-06T20:54:43.944Z,19.02
2017-12-06T20:57:10.418Z,19.02
2017-12-06T20:59:36.878Z,18.35
2017-12-06T21:02:04.069Z,17.90
2017-12-06T21:04:30.554Z,17.30
2017-12-06T21:06:57.827Z,19.70
2017-12-06T21:09:25.003Z,19.92
2017-12-06T21:11:51.438Z,20.37
2017-12-06T21:14:17.893Z,20.33
2017-12-06T21:16:44.375Z,19.35
2017-12-06T21:19:10.844Z,18.02
2017-12-06T21:21:37.284Z,21.35
2017-12-06T21:24:03.747Z,18.48
2017-12-06T21:26:30.244Z,19.48
2017-12-06T21:28:56.683Z,20.27
2017-12-06T21:31:23.097Z,19.87
2017-12-06T21:33:49.556Z,19.55
2017-12-06T21:36:15.991Z,18.95
2017-12-06T21:38:42.395Z,17.87
2017-12-06T21:41:08.853Z,19.77
2017-12-06T21:43:35.259Z,18.25
2017-12-06T21:46:01.710Z,17.75
2017-12-06T21:48:28.224Z,16.92
2017-12-06T21:50:54.641Z,17.33
2017-12-06T21:53:21.817Z,18.12
2017-12-06T21:55:48.276Z,20.33
2017-12-06T21:58:14.691Z,18.05
2017-12-06T22:00:41.113Z,19.92
2017-12-06T22:03:07.542Z,18.95
2017-12-06T22:05:33.957Z,18.42
2017-12-06T22:08:00.441Z,16.12
2017-12-06T22:10:26.841Z,18.25
2017-12-06T22:12:53.256Z,18.52
2017-12-06T22:15:20.409Z,18.12
2017-12-06T22:17:46.832Z,17.27
2017-12-06T22:20:13.984Z,16.73
2017-12-06T22:22:41.166Z,15.73
2017-12-06T22:25:07.678Z,17.70
2017-12-06T22:27:34.156Z,16.50
2017-12-06T22:30:00.579Z,16.73
2017-12-06T22:32:27.024Z,15.85
2017-12-06T22:34:53.490Z,15.15
2017-12-06T22:37:20.142Z,15.45
2017-12-06T22:39:46.622Z,14.95
2017-12-06T22:42:13.035Z,16.58
2017-12-06T22:44:39.505Z,15.35
2017-12-06T22:47:06.701Z,16.58
2017-12-06T22:49:33.232Z,16.80
2017-12-06T22:51:59.668Z,15.93
2017-12-06T22:54:26.118Z,18.12
2017-12-06T22:56:52.580Z,16.73
2017-12-06T22:59:19.001Z,16.77
2017-12-06T23:01:45.458Z,17.55
2017-12-06T23:04:11.896Z,18.23
2017-12-06T23:06:38.362Z,18.20
2017-12-06T23:09:04.789Z,17.87
2017-12-06T23:11:31.270Z,16.20
2017-12-06T23:13:57.705Z,16.40
2017-12-06T23:16:24.873Z,16.75
2017-12-06T23:18:52.078Z,16.27
2017-12-06T23:21:18.536Z,15.85
2017-12-06T23:23:45.062Z,15.55
2017-12-06T23:26:11.504Z,17.27
2017-12-06T23:28:37.930Z,16.20
2017-12-06T23:31:04.414Z,16.83
2017-12-06T23:33:30.846Z,16.77
2017-12-06T23:35:57.351Z,17.30
2017-12-06T23:38:24.697Z,15.90
2017-12-06T23:40:51.161Z,17.52
2017-12-06T23:43:18.336Z,16.60
2017-12-06T23:45:44.773Z,14.93
2017-12-06T23:48:11.234Z,16.45
2017-12-06T23:50:37.654Z,15.57
2017-12-06T23:53:04.070Z,16.40
2017-12-06T23:55:30.500Z,14.48
2017-12-06T23:57:57.633Z,15.25
